Time;durP1;ratioP1;P1;durP2;ratioP2;P2;SDS_P1;SDS_P2;PMS_P1;PMS_P2;Temp;Humidity;BMP_temperature;BMP_pressure;BME280_temperature;BME280_humidity;BME280_pressure;Samples;Min_cycle;Max_cycle;Signal;HPM_P1;HPM_P2
2023/03/04 00:01:06;;;;;;;49.13;23.42;;;;;;;6.42;79.01;99511.84;4885802;29;20028;-95
2023/03/04 00:03:40;;;;;;;51.53;23.88;;;;;;;6.44;78.84;99507.88;4885540;29;20480;-93
2023/03/04 00:06:06;;;;;;;46.53;21.73;;;;;;;6.49;78.70;99515.16;4885105;29;20024;-93
2023/03/04 00:08:32;;;;;;;48.97;21.85;;;;;;;6.45;78.76;99514.00;4885441;29;20028;-93
2023/03/04 00:11:00;;;;;;;46.15;22.45;;;;;;;6.45;78.90;99525.56;4885719;29;20031;-93
2023/03/04 00:13:26;;;;;;;51.97;23.50;;;;;;;6.38;78.39;99508.00;4886365;29;20025;-94
2023/03/04 00:15:52;;;;;;;50.42;24.00;;;;;;;6.33;79.37;99519.41;4886318;29;20038;-93
2023/03/04 00:18:20;;;;;;;48.28;22.55;;;;;;;6.31;78.89;99508.16;4885726;29;20144;-93
2023/03/04 00:20:48;;;;;;;47.03;23.30;;;;;;;6.35;79.00;99511.13;4885235;29;20056;-93
2023/03/04 00:23:14;;;;;;;45.65;23.02;;;;;;;6.38;79.14;99494.63;4885160;29;20456;-94
2023/03/04 00:25:40;;;;;;;43.65;21.55;;;;;;;6.51;78.56;99515.75;4885090;29;20021;-93
2023/03/04 00:28:05;;;;;;;43.85;19.80;;;;;;;6.44;78.48;99510.53;4884957;29;20039;-92
2023/03/04 00:30:31;;;;;;;44.05;21.52;;;;;;;6.49;78.96;99512.50;4884755;29;20056;-93
2023/03/04 00:32:57;;;;;;;44.75;21.45;;;;;;;6.30;78.83;99484.31;4885272;29;20542;-94
2023/03/04 00:35:23;;;;;;;41.58;21.35;;;;;;;6.30;78.38;99485.13;4886215;29;20024;-93
2023/03/04 00:37:48;;;;;;;45.13;21.60;;;;;;;6.32;78.82;99492.91;4886036;29;20379;-94
2023/03/04 00:40:23;;;;;;;41.08;21.13;;;;;;;6.21;79.27;99494.56;4884989;29;20135;-93
2023/03/04 00:42:48;;;;;;;50.40;20.80;;;;;;;6.31;78.64;99486.75;4884152;29;20055;-92
2023/03/04 00:45:14;;;;;;;36.30;18.98;;;;;;;6.19;78.92;99491.31;4885137;29;20028;-93
2023/03/04 00:47:42;;;;;;;41.72;21.70;;;;;;;6.14;79.02;99481.31;4885119;29;20028;-93
2023/03/04 00:50:09;;;;;;;42.17;22.40;;;;;;;6.14;79.36;99502.69;4884330;29;20032;-94
2023/03/04 00:52:34;;;;;;;40.63;21.75;;;;;;;6.01;79.15;99477.06;4884607;29;20476;-93
2023/03/04 00:55:03;;;;;;;45.45;20.83;;;;;;;5.92;80.10;99474.97;4884797;29;20119;-93
2023/03/04 00:57:29;;;;;;;47.78;22.73;;;;;;;6.01;79.86;99476.25;4884710;29;20033;-92
2023/03/04 00:59:55;;;;;;;43.88;21.20;;;;;;;6.07;79.24;99484.13;4884905;29;20180;-94
2023/03/04 01:02:21;;;;;;;41.60;20.58;;;;;;;6.17;78.74;99491.56;4884921;29;20032;-92
2023/03/04 01:04:47;;;;;;;39.50;20.55;;;;;;;6.23;79.19;99493.28;4885091;29;20505;-95
2023/03/04 01:07:12;;;;;;;36.60;19.80;;;;;;;6.25;79.07;99501.88;4885344;29;20032;-93
2023/03/04 01:09:38;;;;;;;38.63;19.80;;;;;;;6.16;79.33;99491.78;4884855;29;20036;-93
2023/03/04 01:12:13;;;;;;;40.30;21.08;;;;;;;6.19;79.50;99500.16;4884679;29;20123;-93
2023/03/04 01:14:47;;;;;;;43.67;21.23;;;;;;;6.12;79.35;99487.94;4884863;29;20044;-93
2023/03/04 01:17:23;;;;;;;;;;;;;;;;;;;;;
2023/03/04 01:19:52;;;;;;;47.00;20.00;;;;;;;6.29;78.64;99504.91;4901136;29;20036;-94
2023/03/04 01:22:18;;;;;;;41.63;21.48;;;;;;;6.26;79.16;99500.00;4884121;29;20468;-93
2023/03/04 01:24:44;;;;;;;41.70;20.52;;;;;;;6.37;78.78;99511.72;4884315;29;20119;-94
2023/03/04 01:27:16;;;;;;;40.90;21.20;;;;;;;6.43;77.89;99500.06;4884655;29;20116;-93
2023/03/04 01:29:47;;;;;;;38.50;20.17;;;;;;;6.46;77.92;99499.59;4885637;29;20028;-93
2023/03/04 01:32:13;;;;;;;39.08;20.52;;;;;;;6.45;77.87;99504.16;4883791;29;20032;-93
2023/03/04 01:34:38;;;;;;;44.45;19.55;;;;;;;6.46;77.43;99491.59;4884298;29;20036;-93
2023/03/04 01:37:05;;;;;;;40.05;20.60;;;;;;;6.46;77.54;99495.06;4884639;29;20089;-93
2023/03/04 01:39:31;;;;;;;40.75;19.63;;;;;;;6.48;77.24;99490.28;4884721;29;20056;-93
2023/03/04 01:41:56;;;;;;;42.78;20.55;;;;;;;6.54;77.53;99503.78;4884593;29;20080;-92
2023/03/04 01:44:22;;;;;;;36.17;20.08;;;;;;;6.38;77.87;99482.06;4885148;29;20020;-92
2023/03/04 01:46:50;;;;;;;39.70;18.70;;;;;;;6.39;78.42;99504.25;4884170;29;20043;-92
2023/03/04 01:49:16;;;;;;;38.60;19.02;;;;;;;6.26;78.43;99508.84;4884257;29;20036;-93
2023/03/04 01:51:43;;;;;;;46.65;20.52;;;;;;;6.15;79.07;99490.97;4884317;29;20574;-93
2023/03/04 01:54:08;;;;;;;67.50;29.90;;;;;;;6.04;79.49;99497.19;4883818;29;20084;-93
2023/03/04 01:56:36;;;;;;;57.85;26.60;;;;;;;5.98;79.90;99474.88;4884354;29;20063;-93
2023/03/04 01:59:18;;;;;;;53.80;24.65;;;;;;;6.11;79.87;99484.47;4884327;29;20036;-94
2023/03/04 02:01:47;;;;;;;;;;;;;;;6.17;79.54;99499.56;4883221;29;20084;-92
2023/03/04 02:04:16;;;;;;;47.08;20.98;;;;;;;6.12;79.34;99494.13;4868635;29;19912;-92
2023/03/04 02:06:42;;;;;;;47.17;20.15;;;;;;;6.03;79.82;99488.31;4883832;29;20509;-94
2023/03/04 02:09:08;;;;;;;43.85;19.80;;;;;;;5.90;80.18;99495.78;4882745;29;20032;-92
2023/03/04 02:11:34;;;;;;;39.65;20.00;;;;;;;5.91;80.18;99498.19;4884272;29;20032;-92
2023/03/04 02:14:05;;;;;;;43.47;20.48;;;;;;;5.80;80.21;99486.47;4883846;29;20040;-93
2023/03/04 02:16:31;;;;;;;46.35;20.83;;;;;;;5.85;80.66;99467.88;4883058;29;20043;-93
2023/03/04 02:18:57;;;;;;;40.60;19.90;;;;;;;5.82;79.78;99459.53;4883225;29;20028;-93
2023/03/04 02:21:28;;;;;;;40.97;21.10;;;;;;;5.77;80.39;99470.91;4884227;29;20538;-93
2023/03/04 02:24:10;;;;;;;37.95;19.58;;;;;;;5.69;80.44;99462.47;4883403;29;20031;-93
2023/03/04 02:26:45;;;;;;;34.67;18.33;;;;;;;5.85;79.74;99483.09;4883264;29;20119;-93
2023/03/04 02:29:14;;;;;;;37.53;19.27;;;;;;;5.81;80.44;99482.75;4883715;29;20048;-93
2023/03/04 02:31:42;;;;;;;40.10;18.73;;;;;;;5.90;79.93;99480.53;4883534;29;20032;-94
2023/03/04 02:34:22;;;;;;;36.95;19.08;;;;;;;5.94;79.21;99483.56;4882767;29;20033;-94
2023/03/04 02:36:51;;;;;;;39.45;19.27;;;;;;;6.04;79.19;99476.59;4882472;29;20036;-93
2023/03/04 02:39:20;;;;;;;42.10;18.70;;;;;;;6.15;79.29;99496.31;4883130;29;20039;-94
2023/03/04 02:41:46;;;;;;;41.55;18.63;;;;;;;6.22;79.16;99496.19;4883437;29;20068;-92
2023/03/04 02:44:24;;;;;;;37.05;18.70;;;;;;;6.00;79.30;99475.44;4883685;29;20487;-93
2023/03/04 02:46:50;;;;;;;37.20;18.52;;;;;;;6.03;79.15;99479.50;4883293;29;20123;-92
2023/03/04 02:49:16;;;;;;;40.80;19.05;;;;;;;6.06;79.29;99479.84;4882576;29;20036;-93
2023/03/04 02:51:42;;;;;;;39.90;16.98;;;;;;;6.02;79.66;99484.03;4883353;29;20033;-92
2023/03/04 02:54:19;;;;;;;35.72;18.63;;;;;;;5.96;79.59;99482.31;4882629;29;20540;-93
2023/03/04 02:56:49;;;;;;;38.45;18.85;;;;;;;5.97;79.74;99475.09;4882594;29;20100;-92
2023/03/04 02:59:14;;;;;;;36.38;17.75;;;;;;;5.96;79.37;99476.16;4881981;29;20028;-93
2023/03/04 03:01:40;;;;;;;41.20;18.52;;;;;;;5.97;79.11;99472.41;4882772;29;20028;-94
2023/03/04 03:04:09;;;;;;;39.20;18.42;;;;;;;5.94;79.01;99459.50;4882671;29;20598;-93
2023/03/04 03:06:34;;;;;;;38.45;18.20;;;;;;;6.06;79.29;99485.19;4882998;29;20039;-93
2023/03/04 03:09:00;;;;;;;41.10;16.38;;;;;;;5.98;79.17;99469.53;4882677;29;20037;-92
2023/03/04 03:11:26;;;;;;;39.65;17.30;;;;;;;6.03;79.13;99474.94;4882775;29;20037;-93
2023/03/04 03:13:52;;;;;;;31.50;17.15;;;;;;;6.14;79.08;99480.50;4882948;29;20037;-94
2023/03/04 03:16:18;;;;;;;36.90;17.52;;;;;;;6.18;78.75;99482.47;4883104;29;20028;-92
2023/03/04 03:18:43;;;;;;;34.35;16.67;;;;;;;6.26;78.25;99494.66;4882823;29;20036;-94
2023/03/04 03:21:09;;;;;;;31.45;16.70;;;;;;;6.25;78.31;99487.69;4882718;29;20032;-93
2023/03/04 03:23:35;;;;;;;35.08;16.58;;;;;;;6.32;78.37;99485.69;4882557;29;20134;-93
2023/03/04 03:26:06;;;;;;;35.40;17.13;;;;;;;6.22;77.96;99462.22;4882499;29;20028;-94
2023/03/04 03:28:32;;;;;;;30.88;15.60;;;;;;;6.27;77.84;99480.25;4881859;29;20035;-92
2023/03/04 03:31:01;;;;;;;34.30;17.05;;;;;;;6.16;78.19;99457.84;4882963;29;20123;-92
2023/03/04 03:33:56;;;;;;;31.33;16.90;;;;;;;6.13;78.86;99474.34;4882443;29;20123;-93
2023/03/04 03:37:01;;;;;;;;;;;;;;;;;;;;;
2023/03/04 09:44:41;;;;;;;15.38;9.13;;;;;;;11.23;58.83;99435.03;6000594;23;20958;-89
2023/03/04 11:26:21;;;;;;;11.55;6.05;;;;;;;12.61;53.28;99270.84;4917581;29;20092;-94
2023/03/04 11:28:53;;;;;;;11.48;5.80;;;;;;;12.73;52.42;99273.97;4871085;29;20062;-94
2023/03/04 11:31:26;;;;;;;10.70;6.07;;;;;;;12.96;52.41;99277.78;4871045;29;20051;-94
2023/03/04 11:34:16;;;;;;;18.70;7.32;;;;;;;12.76;53.49;99268.00;4886923;29;20119;-94
2023/03/04 11:36:56;;;;;;;13.75;6.38;;;;;;;12.58;53.76;99257.94;4885607;29;20028;-94
2023/03/04 11:39:40;;;;;;;14.07;6.82;;;;;;;12.28;54.26;99254.38;4886084;29;20024;-95
2023/03/04 11:42:20;;;;;;;11.98;6.20;;;;;;;12.30;54.94;99260.31;4877374;29;20043;-94
2023/03/04 11:44:46;;;;;;;12.40;6.47;;;;;;;12.25;54.58;99261.16;4874970;29;20483;-94
2023/03/04 11:47:36;;;;;;;14.75;6.32;;;;;;;12.23;54.74;99257.13;4874315;29;20020;-94
2023/03/04 11:51:01;;;;;;;15.38;7.20;;;;;;;12.36;54.25;99251.06;4910027;29;20522;-96
2023/03/04 11:53:31;;;;;;;18.25;7.45;;;;;;;12.23;55.42;99236.34;4927362;29;20025;-94
2023/03/04 11:56:18;;;;;;;12.63;6.32;;;;;;;12.34;55.22;99231.66;4874468;29;20032;-94
2023/03/04 11:58:59;;;;;;;18.92;6.25;;;;;;;12.34;54.57;99232.44;4891819;29;20031;-93
2023/03/04 12:01:34;;;;;;;15.30;5.85;;;;;;;12.36;54.59;99232.19;4890862;29;20099;-94
2023/03/04 12:03:59;;;;;;;8.38;4.93;;;;;;;12.48;53.26;99234.50;4905463;29;20098;-93
2023/03/04 12:06:46;;;;;;;10.80;6.00;;;;;;;12.34;53.84;99237.84;4904905;29;20027;-94
2023/03/04 12:09:11;;;;;;;12.90;5.72;;;;;;;12.36;53.37;99236.78;4904868;29;20070;-94
2023/03/04 12:12:19;;;;;;;10.25;5.88;;;;;;;12.38;54.21;99245.41;4905169;29;20479;-93
2023/03/04 12:15:00;;;;;;;12.73;6.82;;;;;;;12.29;54.56;99235.22;4889601;29;20028;-94
2023/03/04 12:18:00;;;;;;;10.10;6.45;;;;;;;12.32;54.87;99234.63;4904984;29;20038;-93
2023/03/04 12:20:38;;;;;;;14.48;7.38;;;;;;;12.34;54.32;99235.16;4905163;29;20066;-94
2023/03/04 12:23:10;;;;;;;18.63;9.68;;;;;;;12.37;54.27;99224.88;4904758;29;20103;-94
2023/03/04 12:25:40;;;;;;;18.77;6.80;;;;;;;12.27;55.65;99217.69;4899034;29;20080;-92
2023/03/04 12:28:11;;;;;;;9.57;6.30;;;;;;;12.25;54.91;99219.88;4873554;29;20024;-94
2023/03/04 12:31:09;;;;;;;13.38;6.40;;;;;;;12.20;54.75;99223.41;4920943;29;20029;-93
2023/03/04 12:33:49;;;;;;;14.27;6.97;;;;;;;12.29;54.65;99213.63;4904447;29;20028;-94
2023/03/04 12:36:26;;;;;;;9.50;5.90;;;;;;;12.22;54.86;99215.84;4904942;29;20020;-93
2023/03/04 12:39:13;;;;;;;12.07;6.57;;;;;;;12.15;55.30;99207.25;4874733;29;20410;-93
2023/03/04 12:42:15;;;;;;;13.68;6.90;;;;;;;12.21;55.29;99214.22;4920395;29;20040;-94
2023/03/04 12:45:06;;;;;;;15.95;6.50;;;;;;;12.31;54.74;99206.03;4905825;29;20056;-93
2023/03/04 12:47:40;;;;;;;12.43;6.07;;;;;;;12.28;55.09;99208.50;4904519;29;20102;-95
2023/03/04 12:50:21;;;;;;;8.93;5.40;;;;;;;12.34;54.94;99210.84;4919532;29;20036;-94
2023/03/04 12:53:09;;;;;;;11.75;5.95;;;;;;;12.31;54.57;99189.84;4918982;29;20082;-94
2023/03/04 12:55:39;;;;;;;12.32;6.07;;;;;;;12.44;54.24;99177.56;4906101;29;20028;-94
2023/03/04 12:58:05;;;;;;;10.32;6.50;;;;;;;12.65;53.71;99198.97;4873089;29;20099;-94
2023/03/04 13:00:34;;;;;;;23.65;7.55;;;;;;;12.58;54.88;99193.09;4888786;29;20040;-93
2023/03/04 13:03:23;;;;;;;11.73;5.97;;;;;;;12.64;54.24;99190.06;4904206;29;20029;-94
2023/03/04 13:06:08;;;;;;;13.38;5.93;;;;;;;12.70;53.13;99188.09;4903529;29;20032;-94
2023/03/04 13:08:50;;;;;;;12.20;6.10;;;;;;;12.71;53.42;99171.59;4920749;29;20447;-94
2023/03/04 13:11:25;;;;;;;11.52;5.95;;;;;;;12.90;53.76;99182.44;4904219;29;20111;-94
2023/03/04 13:14:02;;;;;;;14.85;8.07;;;;;;;12.94;53.45;99161.06;4919486;29;20028;-94
2023/03/04 13:16:47;;;;;;;12.90;6.10;;;;;;;13.12;53.17;99165.72;4904218;29;20407;-94
2023/03/04 13:19:44;;;;;;;9.73;6.05;;;;;;;13.29;52.13;99154.41;4903405;29;20031;-94
2023/03/04 13:22:31;;;;;;;11.27;5.75;;;;;;;13.12;52.10;99135.97;4919527;29;20122;-93
2023/03/04 13:24:58;;;;;;;15.60;6.63;;;;;;;13.25;52.67;99147.16;4904263;29;20132;-94
2023/03/04 13:27:47;;;;;;;12.13;6.30;;;;;;;13.29;52.10;99153.63;4903329;29;20487;-94
2023/03/04 13:30:31;;;;;;;11.85;6.50;;;;;;;13.14;52.47;99152.72;4903567;29;20060;-93
2023/03/04 13:33:17;;;;;;;12.65;5.80;;;;;;;13.30;52.93;99141.69;4919496;29;20025;-94
2023/03/04 13:35:46;;;;;;;13.50;6.68;;;;;;;13.33;52.38;99141.13;4907707;29;20108;-94
2023/03/04 13:38:27;;;;;;;13.05;6.80;;;;;;;13.26;52.75;99140.66;4918823;29;20028;-93
2023/03/04 13:41:41;;;;;;;13.00;5.93;;;;;;;13.27;52.51;99136.84;4903608;29;20019;-93
2023/03/04 13:44:54;;;;;;;11.18;6.40;;;;;;;13.17;53.14;99118.88;4919919;29;20040;-94
2023/03/04 13:47:21;;;;;;;15.32;6.57;;;;;;;12.99;53.37;99103.44;4902532;29;20032;-93
2023/03/04 13:49:46;;;;;;;12.55;6.05;;;;;;;13.12;52.87;99111.66;4872249;29;20024;-93
2023/03/04 13:52:43;;;;;;;12.52;5.57;;;;;;;13.19;52.43;99121.28;4902462;29;20043;-94
2023/03/04 13:55:39;;;;;;;12.55;6.40;;;;;;;13.10;52.87;99116.53;4903368;29;20043;-93
2023/03/04 13:58:23;;;;;;;12.88;6.45;;;;;;;13.09;52.83;99103.31;4902012;29;20040;-93
2023/03/04 14:00:51;;;;;;;12.52;6.85;;;;;;;12.87;53.82;99098.47;4871318;29;20479;-93
2023/03/04 14:03:26;;;;;;;12.52;7.15;;;;;;;12.93;53.12;99098.13;4902744;29;20028;-94
2023/03/04 14:06:11;;;;;;;25.85;9.45;;;;;;;12.82;54.12;99102.03;4886838;29;20032;-93
2023/03/04 14:08:37;;;;;;;12.32;6.15;;;;;;;12.73;53.48;99085.66;4902923;29;20048;-93
2023/03/04 14:11:03;;;;;;;11.88;5.80;;;;;;;12.77;53.52;99091.31;4886462;29;20039;-94
2023/03/04 14:13:28;;;;;;;12.77;6.40;;;;;;;12.80;53.46;99084.50;4903088;29;20032;-93
2023/03/04 14:16:00;;;;;;;13.68;7.20;;;;;;;12.75;53.87;99071.88;4886978;29;20479;-93
2023/03/04 14:18:28;;;;;;;;;;;;;;;12.90;53.30;99087.88;4903289;29;20047;-93
2023/03/04 14:20:57;;;;;;;13.02;6.40;;;;;;;12.87;53.60;99082.28;4902946;29;19912;-94
2023/03/04 14:23:31;;;;;;;12.73;6.25;;;;;;;12.80;53.95;99084.50;4872116;29;20021;-93
2023/03/04 14:26:04;;;;;;;13.07;6.00;;;;;;;12.77;54.11;99074.28;4886510;29;20052;-95
2023/03/04 14:28:30;;;;;;;17.17;8.57;;;;;;;12.69;54.69;99079.22;4886595;29;20036;-93
2023/03/04 14:30:56;;;;;;;16.77;6.97;;;;;;;12.48;54.75;99064.38;4872079;29;20056;-94
2023/03/04 14:33:28;;;;;;;16.10;6.78;;;;;;;12.40;54.86;99067.72;4871016;29;20482;-93
2023/03/04 14:35:55;;;;;;;16.55;6.80;;;;;;;12.30;55.22;99072.13;4871988;29;20032;-93
2023/03/04 14:38:25;;;;;;;14.05;7.00;;;;;;;12.42;55.73;99079.03;4871596;29;20502;-94
2023/03/04 14:40:57;;;;;;;20.00;8.57;;;;;;;12.28;55.86;99047.31;4887263;29;20095;-92
2023/03/04 14:43:25;;;;;;;23.38;8.82;;;;;;;12.30;55.97;99061.31;4871712;29;20028;-93
2023/03/04 14:45:52;;;;;;;15.30;7.60;;;;;;;12.22;56.12;99055.75;4872100;29;20044;-93
2023/03/04 14:48:36;;;;;;;17.23;9.48;;;;;;;12.34;55.61;99075.84;4886341;29;20491;-94
2023/03/04 14:51:02;;;;;;;24.23;7.90;;;;;;;12.39;55.39;99064.22;4870474;29;20032;-92
2023/03/04 14:53:31;;;;;;;13.00;6.40;;;;;;;12.37;55.32;99052.06;4887072;29;20032;-93
2023/03/04 14:56:01;;;;;;;11.95;6.90;;;;;;;12.34;55.77;99061.56;4871433;29;20482;-95
2023/03/04 14:58:28;;;;;;;14.57;6.93;;;;;;;12.38;55.45;99053.69;4886060;29;20036;-94
2023/03/04 15:01:16;;;;;;;21.02;8.70;;;;;;;12.36;55.49;99050.47;4886332;29;20089;-93
2023/03/04 15:03:55;;;;;;;11.90;6.72;;;;;;;12.44;54.71;99045.25;4870605;29;20028;-94
2023/03/04 15:06:25;;;;;;;11.77;6.72;;;;;;;12.44;54.75;99031.75;4871781;29;20066;-94
2023/03/04 15:09:20;;;;;;;11.82;6.43;;;;;;;12.56;55.01;99049.44;4872062;29;20175;-95
2023/03/04 15:11:57;;;;;;;12.35;6.85;;;;;;;12.56;54.60;99044.03;4886655;29;20031;-93
2023/03/04 15:14:45;;;;;;;12.23;6.03;;;;;;;12.61;54.33;99044.75;4885921;29;20487;-95
2023/03/04 15:17:37;;;;;;;11.35;6.50;;;;;;;12.59;54.56;99038.03;4886222;29;20402;-94
2023/03/04 15:20:08;;;;;;;12.38;7.47;;;;;;;12.47;54.52;99043.84;4886103;29;20032;-94
2023/03/04 15:22:41;;;;;;;12.82;6.03;;;;;;;12.26;54.56;99019.00;4901784;29;20051;-92
2023/03/04 15:25:14;;;;;;;13.07;6.18;;;;;;;12.22;54.41;99021.50;4896416;29;20063;-94
2023/03/04 15:27:40;;;;;;;10.90;6.82;;;;;;;12.15;55.05;99022.94;4890464;29;20027;-93
2023/03/04 15:30:12;;;;;;;11.65;7.40;;;;;;;12.16;55.25;99021.81;4889735;29;20028;-93
2023/03/04 15:32:38;;;;;;;19.83;8.68;;;;;;;12.16;55.45;99019.94;4890359;29;20505;-95
2023/03/04 15:35:04;;;;;;;11.98;6.70;;;;;;;12.15;55.37;99023.72;4890080;29;20032;-94
2023/03/04 15:37:29;;;;;;;19.95;10.70;;;;;;;12.09;55.72;99019.47;4889872;29;20032;-94
2023/03/04 15:40:08;;;;;;;14.73;8.73;;;;;;;12.08;55.36;99017.88;4889848;29;20068;-94
2023/03/04 15:42:33;;;;;;;13.45;8.85;;;;;;;12.18;55.80;99028.56;4890488;29;20027;-94
2023/03/04 15:44:59;;;;;;;15.07;8.85;;;;;;;12.05;56.79;99021.94;4889682;29;20023;-94
2023/03/04 15:47:25;;;;;;;22.63;13.75;;;;;;;11.97;56.81;99016.38;4890540;29;20486;-93
2023/03/04 15:49:52;;;;;;;29.98;10.48;;;;;;;11.99;56.54;99027.69;4890596;29;20055;-94
2023/03/04 15:52:22;;;;;;;17.83;10.23;;;;;;;11.80;56.83;99012.19;4892451;29;20118;-93
2023/03/04 15:54:51;;;;;;;19.30;10.00;;;;;;;11.81;56.81;99011.09;4907083;29;20035;-92
2023/03/04 15:57:22;;;;;;;17.90;10.90;;;;;;;11.72;56.85;99018.19;4893821;29;20032;-94
2023/03/04 15:59:48;;;;;;;19.50;10.02;;;;;;;11.66;56.62;99005.84;4890126;29;20032;-94
2023/03/04 16:02:18;;;;;;;15.15;9.20;;;;;;;11.69;56.71;99019.56;4890123;29;20059;-94
2023/03/04 16:04:44;;;;;;;16.10;9.27;;;;;;;11.60;57.44;99031.25;4890036;29;20059;-94
2023/03/04 16:07:18;;;;;;;22.02;9.18;;;;;;;11.40;57.68;99016.06;4905824;29;20071;-93
2023/03/04 16:09:44;;;;;;;14.88;7.60;;;;;;;11.37;57.33;99017.44;4890162;29;20074;-94
2023/03/04 16:12:12;;;;;;;24.48;14.40;;;;;;;11.36;58.82;99028.50;4890800;29;20026;-94
2023/03/04 16:14:38;;;;;;;36.30;21.60;;;;;;;11.26;59.04;99015.91;4890863;29;20031;-94
2023/03/04 16:17:04;;;;;;;34.60;21.88;;;;;;;11.30;59.14;99027.72;4890905;29;20026;-93
2023/03/04 16:19:29;;;;;;;43.78;26.40;;;;;;;11.25;59.33;99022.41;4889375;29;20114;-94
2023/03/04 16:21:55;;;;;;;29.90;19.35;;;;;;;11.22;60.04;99021.03;4892538;29;20047;-95
2023/03/04 16:24:21;;;;;;;31.95;17.65;;;;;;;11.14;60.26;99013.56;4889406;29;20048;-94
2023/03/04 16:26:46;;;;;;;32.20;18.02;;;;;;;11.21;60.54;99032.94;4870659;29;20044;-93
2023/03/04 16:29:12;;;;;;;27.90;15.60;;;;;;;11.24;60.22;99034.25;4874069;29;20028;-94
2023/03/04 16:31:38;;;;;;;31.48;14.50;;;;;;;11.19;60.54;99031.59;4875348;29;20047;-95
2023/03/04 16:34:04;;;;;;;27.30;13.88;;;;;;;11.17;60.65;99031.88;4874125;29;20039;-94
2023/03/04 16:36:33;;;;;;;32.10;15.30;;;;;;;11.07;60.90;99026.56;4889681;29;20028;-93
2023/03/04 16:39:03;;;;;;;29.55;15.10;;;;;;;11.14;61.03;99045.91;4874598;29;20028;-92
2023/03/04 16:41:29;;;;;;;27.88;15.52;;;;;;;11.07;61.31;99030.06;4891649;29;20040;-94
2023/03/04 16:43:58;;;;;;;25.83;14.00;;;;;;;11.13;61.41;99028.94;4874435;29;20056;-93
2023/03/04 16:46:24;;;;;;;28.20;14.65;;;;;;;11.12;60.79;99023.81;4873991;29;20475;-94
2023/03/04 16:48:49;;;;;;;27.23;14.45;;;;;;;11.16;61.16;99040.22;4889516;29;20036;-94
2023/03/04 16:51:17;;;;;;;25.63;14.63;;;;;;;11.16;61.63;99038.34;4873932;29;20059;-95
2023/03/04 16:53:46;;;;;;;33.92;16.17;;;;;;;11.21;61.37;99040.22;4874685;29;20372;-93
2023/03/04 16:56:13;;;;;;;26.70;16.17;;;;;;;10.97;61.88;99018.53;4889202;29;20032;-94
2023/03/04 16:58:42;;;;;;;26.77;15.57;;;;;;;11.02;61.89;99027.41;4888854;29;20039;-94
2023/03/04 17:01:21;;;;;;;40.88;19.90;;;;;;;11.01;62.08;99036.56;4874600;29;20104;-94
2023/03/04 17:03:58;;;;;;;98.72;51.08;;;;;;;10.88;62.26;99019.13;4874975;29;20092;-93
2023/03/04 17:06:23;;;;;;;107.13;55.15;;;;;;;10.78;63.45;99035.34;4889270;29;20136;-94
2023/03/04 17:08:49;;;;;;;124.60;62.08;;;;;;;10.70;63.29;99020.56;4889504;29;20051;-94
2023/03/04 17:11:20;;;;;;;110.43;48.83;;;;;;;10.73;63.26;99016.53;4889211;29;20035;-95
2023/03/04 17:13:46;;;;;;;63.95;35.97;;;;;;;10.74;63.43;99009.25;4874140;29;20487;-94
2023/03/04 17:16:14;;;;;;;52.75;28.48;;;;;;;10.82;63.49;99028.31;4874445;29;20491;-94
2023/03/04 17:18:45;;;;;;;45.75;25.35;;;;;;;10.86;63.07;99032.06;4889647;29;20038;-95
2023/03/04 17:21:18;;;;;;;41.83;22.27;;;;;;;10.77;63.13;99027.53;4889436;29;20180;-94
2023/03/04 17:23:47;;;;;;;36.45;18.80;;;;;;;10.79;63.53;99031.59;4875327;29;20039;-94
2023/03/04 17:26:14;;;;;;;41.30;21.08;;;;;;;10.74;63.50;99025.41;4873447;29;20052;-94
2023/03/04 17:28:44;;;;;;;34.92;18.42;;;;;;;10.87;63.73;99040.94;4889138;29;20032;-94
2023/03/04 17:31:17;;;;;;;34.38;19.13;;;;;;;10.76;63.72;99028.63;4875304;29;20089;-94
2023/03/04 17:33:45;;;;;;;39.50;18.63;;;;;;;10.79;63.92;99028.06;4873817;29;20506;-94
2023/03/04 17:36:12;;;;;;;28.45;16.63;;;;;;;10.80;63.49;99030.50;4889135;29;20495;-94
2023/03/04 17:38:44;;;;;;;40.88;19.88;;;;;;;10.74;64.00;99028.91;4874167;29;20115;-94
2023/03/04 17:41:17;;;;;;;41.42;21.35;;;;;;;10.77;64.43;99030.25;4889608;29;20480;-93
2023/03/04 17:43:47;;;;;;;35.03;17.50;;;;;;;10.68;64.44;99033.50;4888986;29;20115;-94
2023/03/04 17:46:29;;;;;;;32.63;15.90;;;;;;;10.50;65.59;99037.66;4874124;29;20036;-94
2023/03/04 17:48:59;;;;;;;26.80;12.10;;;;;;;10.34;65.90;99046.88;4891084;29;20079;-94
2023/03/04 17:51:51;;;;;;;23.73;12.90;;;;;;;10.16;65.95;99036.66;4873410;29;20034;-94
2023/03/04 17:54:17;;;;;;;19.15;10.85;;;;;;;10.17;66.39;99044.47;4876637;29;20052;-93
2023/03/04 17:56:43;;;;;;;25.67;12.35;;;;;;;10.09;65.97;99029.69;4873206;29;20115;-93
2023/03/04 17:59:23;;;;;;;24.75;12.25;;;;;;;10.16;65.43;99010.56;4873231;29;20455;-93
2023/03/04 18:01:49;;;;;;;26.05;12.85;;;;;;;10.28;65.38;99032.59;4888949;29;20391;-93
2023/03/04 18:04:15;;;;;;;21.23;13.07;;;;;;;10.37;65.15;99040.13;4873831;29;20032;-93
2023/03/04 18:06:41;;;;;;;25.75;14.10;;;;;;;10.42;65.02;99042.81;4887793;29;20040;-94
2023/03/04 18:09:07;;;;;;;28.45;15.38;;;;;;;10.42;65.27;99034.75;4889079;29;20127;-94
2023/03/04 18:11:34;;;;;;;28.95;16.05;;;;;;;10.34;65.05;99024.53;4873178;29;20119;-93
2023/03/04 18:14:00;;;;;;;34.20;18.92;;;;;;;10.42;65.42;99040.91;4873538;29;20043;-93
2023/03/04 18:16:27;;;;;;;39.47;21.65;;;;;;;10.41;65.82;99033.13;4873369;29;20028;-94
2023/03/04 18:18:56;;;;;;;41.22;21.80;;;;;;;10.42;65.25;99040.91;4889262;29;20023;-94
2023/03/04 18:21:27;;;;;;;36.97;18.67;;;;;;;10.43;66.00;99047.09;4874521;29;20024;-94
2023/03/04 18:24:05;;;;;;;41.58;19.42;;;;;;;10.19;66.70;99028.03;4881330;29;20095;-95
2023/03/04 18:27:02;;;;;;;;;;;;;;;;;;;;;
2023/03/04 18:30:26;;;;;;;;;;;;;;;;;;;;;
2023/03/04 18:33:24;;;;;;;;;;;;;;;;;;;;;
2023/03/04 18:36:14;;;;;;;26.77;13.57;;;;;;;9.76;67.71;99046.44;4915876;29;20067;-94
2023/03/04 18:39:24;;;;;;;20.70;11.73;;;;;;;9.84;67.67;99052.06;4888191;29;20073;-95
2023/03/04 18:42:34;;;;;;;26.02;12.10;;;;;;;10.04;67.17;99055.78;4879020;29;20076;-95
2023/03/04 18:45:13;;;;;;;21.05;10.93;;;;;;;10.07;66.75;99042.59;4863240;29;20120;-95
2023/03/04 18:51:50;;;;;;;21.00;12.80;;;;;;;10.24;65.82;99044.19;4874313;29;20125;-95
2023/03/04 18:54:17;;;;;;;24.65;14.00;;;;;;;10.11;65.86;99032.13;4864814;29;20061;-94
2023/03/04 18:56:50;;;;;;;33.40;15.80;;;;;;;10.08;65.65;99046.09;4845497;29;20105;-95
2023/03/04 18:59:30;;;;;;;38.40;19.23;;;;;;;9.98;65.97;99036.19;4831759;29;20065;-94
2023/03/04 19:01:57;;;;;;;25.88;14.93;;;;;;;10.04;65.45;99050.41;4832765;29;20063;-93
2023/03/04 19:04:31;;;;;;;23.08;12.90;;;;;;;10.06;65.24;99048.25;4846341;29;20036;-94
2023/03/04 19:07:17;;;;;;;28.85;13.55;;;;;;;10.07;65.68;99050.69;4845369;29;20113;-94
2023/03/04 19:09:48;;;;;;;25.42;15.35;;;;;;;10.06;65.73;99051.75;4830854;29;20132;-93
2023/03/04 19:12:14;;;;;;;31.63;19.60;;;;;;;10.00;65.16;99035.91;4840071;29;20107;-94
2023/03/04 19:14:40;;;;;;;30.58;15.27;;;;;;;10.03;65.29;99043.44;4870854;29;20406;-94
2023/03/04 19:17:05;;;;;;;29.58;15.80;;;;;;;9.93;66.04;99032.69;4886515;29;20083;-94
2023/03/04 19:19:35;;;;;;;27.85;17.10;;;;;;;10.07;65.48;99055.25;4871456;29;20039;-94
2023/03/04 19:22:07;;;;;;;31.48;14.95;;;;;;;9.80;66.92;99042.13;4871110;29;20281;-94
2023/03/04 19:24:40;;;;;;;;;;;;;;;9.88;66.80;99061.22;4892350;29;20126;-93
2023/03/04 19:27:05;;;;;;;30.00;18.50;;;;;;;9.70;66.80;99046.44;4905963;29;19918;-94
2023/03/04 19:29:34;;;;;;;55.50;29.92;;;;;;;9.62;66.64;99043.50;4904558;29;20036;-93
2023/03/04 19:32:27;;;;;;;76.60;34.63;;;;;;;9.59;66.70;99054.78;4889164;29;20057;-93
2023/03/04 19:34:56;;;;;;;81.72;41.45;;;;;;;9.62;66.98;99051.56;4894568;29;20478;-95
2023/03/04 19:37:27;;;;;;;30.60;17.27;;;;;;;9.71;66.72;99058.00;4890700;29;20110;-94
2023/03/04 19:39:56;;;;;;;31.02;15.57;;;;;;;9.79;66.60;99062.03;4889147;29;20050;-95
2023/03/04 19:42:24;;;;;;;22.33;12.55;;;;;;;9.87;66.04;99059.59;4889514;29;20036;-94
2023/03/04 19:45:02;;;;;;;19.55;11.20;;;;;;;9.94;66.00;99061.19;4888812;29;20027;-93